CFN6 weather

Primrose Airport
Primrose, Alberta, Canada

Public forecast

Using degrees Celsius for public forecast. Weather courtesy of forecast.io.

Closest aviation weather report (METAR) to Primrose Airport

Closest report is CFB Cold Lake, 65.9 nm (122.0 km) SSE. Retrieved 2020/05/26 05:20 UTC (0 seconds ago):

CYOD 260520Z 05004KT 15SM OVC080 16/M00 A2973 RMK AC8 SLP069

Closest aviation forecast (TAF) to Primrose Airport

Closest forecast is CFB Cold Lake, 65.9 nm (122.0 km) SSE. Retrieved 2020-05-26 00:35 UTC (5 hours ago):

TAF CYOD 252330Z 2600/2624 20005KT P6SM BKN080 TEMPO 2600/2609 P6SM -SHRA SCT040 OVC070 BECMG 2601/2603 32008KT FM261200 VRB03KT P6SM SCT100 BKN200 BECMG 2615/2617 32008KT RMK NXT FCST BY 260600Z